createdAt,value
2018-08-23T00:00:34.693Z,991.35
2018-08-23T00:01:34.881Z,991.33
2018-08-23T00:02:35.056Z,991.31
2018-08-23T00:03:35.254Z,991.32
2018-08-23T00:04:35.415Z,991.30
2018-08-23T00:05:35.590Z,991.31
2018-08-23T00:06:35.770Z,991.33
2018-08-23T00:07:35.952Z,991.33
2018-08-23T00:08:36.133Z,991.31
2018-08-23T00:09:36.324Z,991.32
2018-08-23T00:10:36.505Z,991.30
2018-08-23T00:11:36.675Z,991.29
2018-08-23T00:12:36.849Z,991.28
2018-08-23T00:13:37.023Z,991.26
2018-08-23T00:14:37.219Z,991.24
2018-08-23T00:15:37.376Z,991.24
2018-08-23T00:16:37.596Z,991.24
2018-08-23T00:17:37.730Z,991.22
2018-08-23T00:18:37.903Z,991.20
2018-08-23T00:19:38.080Z,991.24
2018-08-23T00:20:38.259Z,991.25
2018-08-23T00:21:38.432Z,991.21
2018-08-23T00:22:38.606Z,991.23
2018-08-23T00:23:38.777Z,991.21
2018-08-23T00:24:38.950Z,991.22
2018-08-23T00:25:39.127Z,991.22
2018-08-23T00:26:39.306Z,991.23
2018-08-23T00:27:39.474Z,991.20
2018-08-23T00:28:39.646Z,991.21
2018-08-23T00:29:39.822Z,991.18
2018-08-23T00:30:39.999Z,991.13
2018-08-23T00:31:40.175Z,991.21
2018-08-23T00:32:40.346Z,991.16
2018-08-23T00:33:40.525Z,991.15
2018-08-23T00:34:40.694Z,991.18
2018-08-23T00:35:40.913Z,991.16
2018-08-23T00:36:41.060Z,991.15
2018-08-23T00:37:41.234Z,991.16
2018-08-23T00:38:41.413Z,991.15
2018-08-23T00:39:41.583Z,991.14
2018-08-23T00:40:41.767Z,991.15
2018-08-23T00:41:41.932Z,991.19
2018-08-23T00:42:42.110Z,991.20
2018-08-23T00:43:42.294Z,991.17
2018-08-23T00:44:42.462Z,991.17
2018-08-23T00:45:42.645Z,991.20
2018-08-23T00:46:42.825Z,991.19
2018-08-23T00:47:43.006Z,991.20
2018-08-23T00:48:43.183Z,991.20
2018-08-23T00:49:43.363Z,991.19
2018-08-23T00:50:43.540Z,991.19
2018-08-23T00:51:43.712Z,991.21
2018-08-23T00:52:43.888Z,991.19
2018-08-23T00:53:44.068Z,991.20
2018-08-23T00:54:44.247Z,991.23
2018-08-23T00:55:44.434Z,991.21
2018-08-23T00:56:44.603Z,991.21
2018-08-23T00:57:44.780Z,991.23
2018-08-23T00:58:44.959Z,991.20
2018-08-23T00:59:45.135Z,991.18
2018-08-23T01:00:45.304Z,991.20
2018-08-23T01:01:45.479Z,991.20
2018-08-23T01:02:45.655Z,991.22
2018-08-23T01:03:45.835Z,991.21
2018-08-23T01:04:46.012Z,991.19
2018-08-23T01:05:46.190Z,991.23
2018-08-23T01:06:46.373Z,991.19
2018-08-23T01:07:46.554Z,991.18
2018-08-23T01:08:46.726Z,991.18
2018-08-23T01:09:46.907Z,991.18
2018-08-23T01:10:47.079Z,991.22
2018-08-23T01:11:47.251Z,991.17
2018-08-23T01:12:47.428Z,991.22
2018-08-23T01:13:47.601Z,991.19
2018-08-23T01:14:47.781Z,991.16
2018-08-23T01:15:47.960Z,991.17
2018-08-23T01:16:48.148Z,991.17
2018-08-23T01:17:48.322Z,991.19
2018-08-23T01:18:48.492Z,991.17
2018-08-23T01:19:48.662Z,991.14
2018-08-23T01:20:48.845Z,991.20
2018-08-23T01:21:49.021Z,991.15
2018-08-23T01:22:49.200Z,991.20
2018-08-23T01:23:49.373Z,991.17
2018-08-23T01:24:49.554Z,991.15
2018-08-23T01:25:49.725Z,991.21
2018-08-23T01:26:49.904Z,991.17
2018-08-23T01:27:50.092Z,991.12
2018-08-23T01:28:50.277Z,991.13
2018-08-23T01:29:50.450Z,991.12
2018-08-23T01:30:50.626Z,991.14
2018-08-23T01:31:50.806Z,991.12
2018-08-23T01:32:50.980Z,991.10
2018-08-23T01:33:51.165Z,991.08
2018-08-23T01:34:51.338Z,991.11
2018-08-23T01:35:51.517Z,991.09
2018-08-23T01:36:51.696Z,991.10
2018-08-23T01:37:51.866Z,991.09
2018-08-23T01:38:52.049Z,991.07
2018-08-23T01:39:52.230Z,991.04
2018-08-23T01:40:52.405Z,991.07
2018-08-23T01:41:52.586Z,991.05
2018-08-23T01:42:52.766Z,991.01
2018-08-23T01:43:52.959Z,991.04
2018-08-23T01:44:53.138Z,991.04
2018-08-23T01:45:53.321Z,991.04
2018-08-23T01:46:53.492Z,991.06
2018-08-23T01:47:53.665Z,991.06
2018-08-23T01:48:53.851Z,991.05
2018-08-23T01:49:54.025Z,991.04
2018-08-23T01:50:54.201Z,991.02
2018-08-23T01:51:54.374Z,991.00
2018-08-23T01:52:54.549Z,990.99
2018-08-23T01:53:54.735Z,990.96
2018-08-23T01:54:54.912Z,990.97
2018-08-23T01:55:55.103Z,990.95
2018-08-23T01:56:55.275Z,990.93
2018-08-23T01:57:55.447Z,990.92
2018-08-23T01:58:55.625Z,990.94
2018-08-23T01:59:55.836Z,990.93
2018-08-23T02:00:55.977Z,990.94
2018-08-23T02:01:56.156Z,990.95
2018-08-23T02:02:56.323Z,990.90
2018-08-23T02:03:56.497Z,990.92
2018-08-23T02:04:56.681Z,990.88
2018-08-23T02:05:56.869Z,990.92
2018-08-23T02:06:57.045Z,990.89
2018-08-23T02:07:57.225Z,990.88
2018-08-23T02:08:57.403Z,990.88
2018-08-23T02:09:57.575Z,990.90
2018-08-23T02:10:57.749Z,990.89
2018-08-23T02:11:57.942Z,990.89
2018-08-23T02:12:58.121Z,990.86
2018-08-23T02:13:58.298Z,990.88
2018-08-23T02:14:58.477Z,990.86
2018-08-23T02:15:58.659Z,990.87
2018-08-23T02:16:58.834Z,990.84
2018-08-23T02:17:59.009Z,990.84
2018-08-23T02:18:59.190Z,990.86
2018-08-23T02:19:59.363Z,990.83
2018-08-23T02:20:59.542Z,990.86
2018-08-23T02:21:59.718Z,990.83
2018-08-23T02:22:59.891Z,990.83
2018-08-23T02:24:00.072Z,990.85
2018-08-23T02:25:00.246Z,990.84
2018-08-23T02:26:00.424Z,990.79
2018-08-23T02:27:00.606Z,990.82
2018-08-23T02:28:00.785Z,990.84
2018-08-23T02:29:00.966Z,990.83
2018-08-23T02:30:01.149Z,990.84
2018-08-23T02:31:01.318Z,990.83
2018-08-23T02:32:01.492Z,990.86
2018-08-23T02:33:01.665Z,990.85
2018-08-23T02:34:01.842Z,990.90
2018-08-23T02:35:02.010Z,990.91
2018-08-23T02:36:02.201Z,990.89
2018-08-23T02:37:02.376Z,990.90
2018-08-23T02:38:02.695Z,990.92
2018-08-23T02:39:02.728Z,990.92
2018-08-23T02:40:02.896Z,990.92
2018-08-23T02:41:03.068Z,990.93
2018-08-23T02:42:03.242Z,990.89
2018-08-23T02:43:03.413Z,990.95
2018-08-23T02:44:03.585Z,990.89
2018-08-23T02:45:03.754Z,990.90
2018-08-23T02:46:03.925Z,990.88
2018-08-23T02:47:04.105Z,990.90
2018-08-23T02:48:04.285Z,990.91
2018-08-23T02:49:04.465Z,990.90
2018-08-23T02:50:04.647Z,990.89
2018-08-23T02:51:04.813Z,990.91
2018-08-23T02:52:05.000Z,990.87
2018-08-23T02:53:05.181Z,990.85
2018-08-23T02:54:05.371Z,990.85
2018-08-23T02:55:05.552Z,990.88
2018-08-23T02:56:05.730Z,990.87
2018-08-23T02:57:05.912Z,990.89
2018-08-23T02:58:06.105Z,990.90
2018-08-23T02:59:06.280Z,990.94
2018-08-23T03:00:06.462Z,990.90
2018-08-23T03:01:06.635Z,990.89
2018-08-23T03:02:06.811Z,990.91
2018-08-23T03:03:06.995Z,990.93
2018-08-23T03:04:07.165Z,990.91
2018-08-23T03:05:07.344Z,990.93
2018-08-23T03:06:07.518Z,990.92
2018-08-23T03:07:07.696Z,990.93
2018-08-23T03:08:07.875Z,990.94
2018-08-23T03:09:08.047Z,990.90
2018-08-23T03:10:08.232Z,990.89
2018-08-23T03:11:08.405Z,990.86
2018-08-23T03:12:08.590Z,990.88
2018-08-23T03:13:08.765Z,990.82
2018-08-23T03:14:09.080Z,990.82
2018-08-23T03:15:09.110Z,990.83
2018-08-23T03:16:09.283Z,990.84
2018-08-23T03:17:09.464Z,990.89
2018-08-23T03:18:09.651Z,990.87
2018-08-23T03:19:09.829Z,990.84
2018-08-23T03:20:10.002Z,990.85
2018-08-23T03:21:10.176Z,990.87
2018-08-23T03:22:10.381Z,990.90
2018-08-23T03:23:10.560Z,990.85
2018-08-23T03:24:10.751Z,990.84
2018-08-23T03:25:10.925Z,990.82
2018-08-23T03:26:11.099Z,990.83
2018-08-23T03:27:11.272Z,990.81
2018-08-23T03:28:11.455Z,990.80
2018-08-23T03:29:11.633Z,990.81
2018-08-23T03:30:11.801Z,990.80
2018-08-23T03:31:11.975Z,990.78
2018-08-23T03:32:12.158Z,990.79
2018-08-23T03:33:12.325Z,990.77
2018-08-23T03:34:12.498Z,990.75
2018-08-23T03:35:12.673Z,990.76
2018-08-23T03:36:12.845Z,990.74
2018-08-23T03:37:13.019Z,990.70
2018-08-23T03:38:13.195Z,990.74
2018-08-23T03:39:13.377Z,990.73
2018-08-23T03:40:13.553Z,990.76
2018-08-23T03:41:13.726Z,990.72
2018-08-23T03:42:13.898Z,990.68
2018-08-23T03:43:14.073Z,990.67
2018-08-23T03:44:14.247Z,990.70
2018-08-23T03:45:14.624Z,990.66
2018-08-23T03:46:14.583Z,990.71
2018-08-23T03:47:14.769Z,990.70
2018-08-23T03:48:14.946Z,990.71
2018-08-23T03:49:15.119Z,990.67
2018-08-23T03:50:15.300Z,990.69
2018-08-23T03:51:15.475Z,990.65
2018-08-23T03:52:15.658Z,990.67
2018-08-23T03:53:15.834Z,990.74
2018-08-23T03:54:16.023Z,990.73
2018-08-23T03:55:16.196Z,990.74
2018-08-23T03:56:16.373Z,990.69
2018-08-23T03:57:16.554Z,990.72
2018-08-23T03:58:16.729Z,990.73
2018-08-23T03:59:16.905Z,990.75
2018-08-23T04:00:17.076Z,990.73
2018-08-23T04:01:17.257Z,990.75
2018-08-23T04:02:17.439Z,990.72
2018-08-23T04:03:17.621Z,990.69
2018-08-23T04:04:17.812Z,990.74
2018-08-23T04:05:17.997Z,990.68
2018-08-23T04:06:18.167Z,990.74
2018-08-23T04:07:18.342Z,990.71
2018-08-23T04:08:18.517Z,990.69
2018-08-23T04:09:18.698Z,990.67
2018-08-23T04:10:18.875Z,990.65
2018-08-23T04:11:19.062Z,990.69
2018-08-23T04:12:19.231Z,990.64
2018-08-23T04:13:19.407Z,990.64
2018-08-23T04:14:19.588Z,990.63
2018-08-23T04:15:19.805Z,990.67
2018-08-23T04:16:19.999Z,990.64
2018-08-23T04:17:20.145Z,990.65
2018-08-23T04:18:20.316Z,990.65
2018-08-23T04:19:20.488Z,990.64
2018-08-23T04:20:20.664Z,990.68
2018-08-23T04:21:20.846Z,990.65
2018-08-23T04:22:21.018Z,990.69
2018-08-23T04:23:21.193Z,990.68
2018-08-23T04:24:21.367Z,990.65
2018-08-23T04:25:21.545Z,990.64
2018-08-23T04:26:21.726Z,990.65
2018-08-23T04:27:21.912Z,990.65
2018-08-23T04:28:22.079Z,990.64
2018-08-23T04:29:22.244Z,990.68
2018-08-23T04:30:22.437Z,990.63
2018-08-23T04:31:22.614Z,990.63
2018-08-23T04:32:22.795Z,990.67
2018-08-23T04:33:22.974Z,990.65
2018-08-23T04:34:23.163Z,990.67
2018-08-23T04:35:23.356Z,990.67
2018-08-23T04:36:23.527Z,990.65
2018-08-23T04:37:23.707Z,990.72
2018-08-23T04:38:23.876Z,990.71
2018-08-23T04:39:26.502Z,990.69
2018-08-23T04:40:24.665Z,990.70
2018-08-23T04:41:24.360Z,990.73
2018-08-23T04:42:24.540Z,990.71
2018-08-23T04:43:24.783Z,990.68
2018-08-23T04:44:24.898Z,990.67
2018-08-23T04:45:25.079Z,990.69
2018-08-23T04:46:25.267Z,990.68
2018-08-23T04:47:27.582Z,990.68
2018-08-23T04:48:25.573Z,990.66
2018-08-23T04:49:25.754Z,990.68
2018-08-23T04:50:25.929Z,990.68
2018-08-23T04:51:27.260Z,990.66
2018-08-23T04:52:27.583Z,990.68
2018-08-23T04:53:27.937Z,990.67
2018-08-23T04:54:28.583Z,990.71
2018-08-23T04:55:26.750Z,990.71
2018-08-23T04:56:30.492Z,990.71
2018-08-23T04:57:28.327Z,990.72
2018-08-23T04:58:28.853Z,990.73
2018-08-23T04:59:28.400Z,990.75
2018-08-23T05:00:28.109Z,990.76
2018-08-23T05:01:27.835Z,990.74
2018-08-23T05:02:27.914Z,990.73
2018-08-23T05:03:30.489Z,990.70
2018-08-23T05:04:29.516Z,990.73
2018-08-23T05:05:28.736Z,990.74
2018-08-23T05:06:30.236Z,990.73
2018-08-23T05:07:29.613Z,990.71
2018-08-23T05:08:28.885Z,990.76
2018-08-23T05:09:31.051Z,990.75
2018-08-23T05:10:30.269Z,990.74
2018-08-23T05:11:29.992Z,990.76
2018-08-23T05:12:30.473Z,990.73
2018-08-23T05:13:29.700Z,990.74
2018-08-23T05:14:29.887Z,990.78
2018-08-23T05:15:30.318Z,990.80
2018-08-23T05:16:30.238Z,990.79
2018-08-23T05:17:30.307Z,990.76
2018-08-23T05:18:30.515Z,990.79
2018-08-23T05:19:30.713Z,990.78
2018-08-23T05:20:33.398Z,990.71
2018-08-23T05:21:33.452Z,990.71
2018-08-23T05:22:31.785Z,990.71
2018-08-23T05:23:31.347Z,990.76
2018-08-23T05:24:31.546Z,990.70
2018-08-23T05:25:31.727Z,990.75
2018-08-23T05:26:31.971Z,990.74
2018-08-23T05:27:32.024Z,990.75
2018-08-23T05:28:32.237Z,990.73
2018-08-23T05:29:32.610Z,990.74
2018-08-23T05:30:32.555Z,990.72
2018-08-23T05:31:33.359Z,990.74
2018-08-23T05:32:33.061Z,990.68
2018-08-23T05:33:33.133Z,990.73
2018-08-23T05:34:33.358Z,990.71
2018-08-23T05:35:33.373Z,990.74
2018-08-23T05:36:33.555Z,990.73
2018-08-23T05:37:35.807Z,990.73
2018-08-23T05:38:33.846Z,990.70
2018-08-23T05:39:34.134Z,990.64
2018-08-23T05:40:34.236Z,990.64
2018-08-23T05:41:34.278Z,990.66
2018-08-23T05:42:34.452Z,990.66
2018-08-23T05:43:34.624Z,990.63
2018-08-23T05:44:34.815Z,990.67
2018-08-23T05:45:34.990Z,990.64
2018-08-23T05:46:35.174Z,990.66
2018-08-23T05:47:35.382Z,990.67
2018-08-23T05:48:35.540Z,990.69
2018-08-23T05:49:35.714Z,990.71
2018-08-23T05:50:35.882Z,990.73
2018-08-23T05:51:36.070Z,990.76
2018-08-23T05:52:36.243Z,990.71
2018-08-23T05:53:36.573Z,990.70
2018-08-23T05:54:36.822Z,990.71
2018-08-23T05:55:36.751Z,990.70
2018-08-23T05:56:36.932Z,990.64
2018-08-23T05:57:37.107Z,990.63
2018-08-23T05:58:37.278Z,990.59
2018-08-23T05:59:37.466Z,990.61
2018-08-23T06:00:37.645Z,990.61
2018-08-23T06:01:37.836Z,990.63
2018-08-23T06:02:38.036Z,990.62
2018-08-23T06:03:38.189Z,990.68
2018-08-23T06:04:38.360Z,990.74
2018-08-23T06:05:38.542Z,990.91
2018-08-23T06:06:38.721Z,991.06
2018-08-23T06:07:38.909Z,991.14
2018-08-23T06:08:39.086Z,991.13
2018-08-23T06:09:39.261Z,991.12
2018-08-23T06:10:39.904Z,991.13
2018-08-23T06:11:40.093Z,991.15
2018-08-23T06:12:39.849Z,991.12
2018-08-23T06:13:40.615Z,991.14
2018-08-23T06:14:40.634Z,991.15
2018-08-23T06:15:41.753Z,991.13
2018-08-23T06:16:40.432Z,991.18
2018-08-23T06:17:40.616Z,991.18
2018-08-23T06:18:41.108Z,991.18
2018-08-23T06:19:40.979Z,991.14
2018-08-23T06:20:41.040Z,991.16
2018-08-23T06:21:41.218Z,991.14
2018-08-23T06:22:41.394Z,991.14
2018-08-23T06:23:41.584Z,991.14
2018-08-23T06:24:41.765Z,991.14
2018-08-23T06:25:41.949Z,991.14
2018-08-23T06:26:42.128Z,991.17
2018-08-23T06:27:42.324Z,991.21
2018-08-23T06:28:42.579Z,991.16
2018-08-23T06:29:42.870Z,991.19
2018-08-23T06:30:42.999Z,991.18
2018-08-23T06:31:43.076Z,991.18
2018-08-23T06:32:43.268Z,991.17
2018-08-23T06:33:43.511Z,991.17
2018-08-23T06:34:43.642Z,991.13
2018-08-23T06:35:43.916Z,991.13
2018-08-23T06:36:44.002Z,991.10
2018-08-23T06:37:44.178Z,991.05
2018-08-23T06:38:44.422Z,991.01
2018-08-23T06:39:44.561Z,991.00
2018-08-23T06:40:44.794Z,990.97
2018-08-23T06:41:44.950Z,990.92
2018-08-23T06:42:45.122Z,990.92
2018-08-23T06:43:45.300Z,990.97
2018-08-23T06:44:45.483Z,990.91
2018-08-23T06:45:45.680Z,990.91
2018-08-23T06:46:45.853Z,990.94
2018-08-23T06:47:46.044Z,990.93
2018-08-23T06:48:46.270Z,990.88
2018-08-23T06:49:46.415Z,990.85
2018-08-23T06:50:47.655Z,990.84
2018-08-23T06:51:48.155Z,990.85
2018-08-23T06:52:48.260Z,990.76
2018-08-23T06:53:50.062Z,990.74
2018-08-23T06:54:49.317Z,990.78
2018-08-23T06:55:49.395Z,990.74
2018-08-23T06:56:47.580Z,990.72
2018-08-23T06:57:47.819Z,990.70
2018-08-23T06:58:47.888Z,990.71
2018-08-23T06:59:48.067Z,990.70
2018-08-23T07:00:48.279Z,990.71
2018-08-23T07:01:48.465Z,990.69
2018-08-23T07:02:48.649Z,990.65
2018-08-23T07:03:48.881Z,990.64
2018-08-23T07:04:49.030Z,990.65
2018-08-23T07:05:49.226Z,990.60
2018-08-23T07:06:49.479Z,990.57
2018-08-23T07:07:49.599Z,990.57
2018-08-23T07:08:50.230Z,990.51
2018-08-23T07:09:49.918Z,990.50
2018-08-23T07:10:50.125Z,990.52
2018-08-23T07:11:50.419Z,990.53
2018-08-23T07:12:50.487Z,990.51
2018-08-23T07:13:50.545Z,990.52
2018-08-23T07:14:50.893Z,990.50
2018-08-23T07:15:51.217Z,990.47
2018-08-23T07:16:51.155Z,990.48
2018-08-23T07:17:51.390Z,990.49
2018-08-23T07:18:51.468Z,990.51
2018-08-23T07:19:51.653Z,990.52
2018-08-23T07:20:51.894Z,990.50
2018-08-23T07:21:53.052Z,990.53
2018-08-23T07:22:52.127Z,990.54
2018-08-23T07:23:52.303Z,990.52
2018-08-23T07:24:52.607Z,990.55
2018-08-23T07:25:52.607Z,990.53
2018-08-23T07:26:52.823Z,990.51
2018-08-23T07:27:52.977Z,990.52
2018-08-23T07:28:53.171Z,990.54
2018-08-23T07:29:53.361Z,990.53
2018-08-23T07:30:53.555Z,990.50
2018-08-23T07:31:53.762Z,990.52
2018-08-23T07:32:54.229Z,990.50
2018-08-23T07:33:54.080Z,990.53
2018-08-23T07:34:55.008Z,990.47
2018-08-23T07:35:55.268Z,990.53
2018-08-23T07:36:54.513Z,990.53
2018-08-23T07:37:54.704Z,990.43
2018-08-23T07:38:54.892Z,990.44
2018-08-23T07:39:55.088Z,990.47
2018-08-23T07:40:55.285Z,990.46
2018-08-23T07:41:55.472Z,990.48
2018-08-23T07:42:55.692Z,990.48
2018-08-23T07:43:55.872Z,990.49
2018-08-23T07:44:56.028Z,990.46
2018-08-23T07:45:56.215Z,990.43
2018-08-23T07:46:56.396Z,990.44
2018-08-23T07:47:56.584Z,990.41
2018-08-23T07:48:56.882Z,990.40
2018-08-23T07:49:56.923Z,990.44
2018-08-23T07:50:57.101Z,990.44
2018-08-23T07:51:57.284Z,990.45
2018-08-23T07:52:57.553Z,990.44
2018-08-23T07:53:57.661Z,990.45
2018-08-23T07:54:57.844Z,990.46
2018-08-23T07:55:58.020Z,990.45
2018-08-23T07:56:58.206Z,990.47
2018-08-23T07:57:58.387Z,990.46
2018-08-23T07:58:58.566Z,990.46
2018-08-23T07:59:58.744Z,990.49
2018-08-23T08:00:58.962Z,990.49
2018-08-23T08:01:59.107Z,990.48
2018-08-23T08:02:59.286Z,990.49
2018-08-23T08:03:59.497Z,990.46
2018-08-23T08:04:59.666Z,990.45
2018-08-23T08:05:59.849Z,990.46
2018-08-23T08:07:00.035Z,990.47
2018-08-23T08:08:00.224Z,990.47
2018-08-23T08:09:00.411Z,990.48
2018-08-23T08:10:00.591Z,990.46
2018-08-23T08:11:00.775Z,990.50
2018-08-23T08:12:00.970Z,990.55
2018-08-23T08:13:01.158Z,990.53
2018-08-23T08:14:01.341Z,990.55
2018-08-23T08:15:01.683Z,990.57
2018-08-23T08:16:01.725Z,990.60
2018-08-23T08:17:01.906Z,990.57
2018-08-23T08:18:02.095Z,990.59
2018-08-23T08:19:02.278Z,990.57
2018-08-23T08:20:02.470Z,990.51
2018-08-23T08:21:02.778Z,990.56
2018-08-23T08:22:02.850Z,990.52
2018-08-23T08:23:03.039Z,990.55
2018-08-23T08:24:03.234Z,990.55
2018-08-23T08:25:03.427Z,990.54
2018-08-23T08:26:03.606Z,990.55
2018-08-23T08:27:03.820Z,990.55
2018-08-23T08:28:03.984Z,990.55
2018-08-23T08:29:04.580Z,990.55
2018-08-23T08:30:04.384Z,990.56
2018-08-23T08:31:04.575Z,990.53
2018-08-23T08:32:04.762Z,990.57
2018-08-23T08:33:05.014Z,990.58
2018-08-23T08:34:06.004Z,990.60
2018-08-23T08:35:05.301Z,990.57
2018-08-23T08:36:05.491Z,990.53
2018-08-23T08:37:05.684Z,990.56
2018-08-23T08:38:05.914Z,990.53
2018-08-23T08:39:06.112Z,990.57
2018-08-23T08:40:06.402Z,990.56
2018-08-23T08:41:06.502Z,990.54
2018-08-23T08:42:06.743Z,990.55
2018-08-23T08:43:07.757Z,990.52
2018-08-23T08:44:07.067Z,990.48
2018-08-23T08:45:07.364Z,990.48
2018-08-23T08:46:08.051Z,990.44
2018-08-23T08:47:07.718Z,990.45
2018-08-23T08:48:07.794Z,990.35
2018-08-23T08:49:08.042Z,990.33
2018-08-23T08:50:08.309Z,990.37
2018-08-23T08:51:08.306Z,990.34
2018-08-23T08:52:08.544Z,990.34
2018-08-23T08:53:09.253Z,990.31
2018-08-23T08:54:08.940Z,990.33
2018-08-23T08:55:09.298Z,990.34
2018-08-23T08:56:09.485Z,990.40
2018-08-23T08:57:09.631Z,990.32
2018-08-23T08:58:09.774Z,990.36
2018-08-23T08:59:09.630Z,990.40
2018-08-23T09:00:10.081Z,990.38
2018-08-23T09:01:10.284Z,990.36
2018-08-23T09:02:10.483Z,990.37
2018-08-23T09:03:13.368Z,990.36
2018-08-23T09:04:11.945Z,990.34
2018-08-23T09:05:11.344Z,990.35
2018-08-23T09:06:11.202Z,990.31
2018-08-23T09:07:11.613Z,990.30
2018-08-23T09:08:11.707Z,990.27
2018-08-23T09:09:12.137Z,990.28
2018-08-23T09:10:12.231Z,990.27
2018-08-23T09:11:12.290Z,990.27
2018-08-23T09:12:12.443Z,990.30
2018-08-23T09:13:12.388Z,990.25
2018-08-23T09:14:12.571Z,990.26
2018-08-23T09:15:12.778Z,990.26
2018-08-23T09:16:13.037Z,990.30
2018-08-23T09:17:13.067Z,990.27
2018-08-23T09:18:13.253Z,990.26
2018-08-23T09:19:13.449Z,990.23
2018-08-23T09:20:13.638Z,990.21
2018-08-23T09:21:13.831Z,990.24
2018-08-23T09:22:14.087Z,990.17
2018-08-23T09:23:14.262Z,990.13
2018-08-23T09:24:14.462Z,990.10
2018-08-23T09:25:14.698Z,990.11
2018-08-23T09:26:14.847Z,990.07
2018-08-23T09:27:15.141Z,990.06
2018-08-23T09:28:15.265Z,990.08
2018-08-23T09:29:15.475Z,990.06
2018-08-23T09:30:15.670Z,990.09
2018-08-23T09:31:15.925Z,990.09
2018-08-23T09:32:16.093Z,990.02
2018-08-23T09:33:16.286Z,990.07
2018-08-23T09:34:16.488Z,990.08
2018-08-23T09:35:16.668Z,990.06
2018-08-23T09:36:16.852Z,990.00
2018-08-23T09:37:17.044Z,989.98
2018-08-23T09:38:17.262Z,990.03
2018-08-23T09:39:17.424Z,990.02
2018-08-23T09:40:17.760Z,989.97
2018-08-23T09:41:17.883Z,990.00
2018-08-23T09:42:18.076Z,990.02
2018-08-23T09:43:20.199Z,990.00
2018-08-23T09:44:19.824Z,990.00
2018-08-23T09:45:19.049Z,989.99
2018-08-23T09:46:19.048Z,989.99
2018-08-23T09:47:19.970Z,989.97
2018-08-23T09:48:19.085Z,989.97
2018-08-23T09:49:20.636Z,989.94
2018-08-23T09:50:20.790Z,989.99
2018-08-23T09:51:22.198Z,989.90
2018-08-23T09:52:21.267Z,989.91
2018-08-23T09:53:21.190Z,989.99
2018-08-23T09:54:21.020Z,989.99
2018-08-23T09:55:21.288Z,989.97
2018-08-23T09:56:20.692Z,989.82
2018-08-23T09:57:20.636Z,989.91
2018-08-23T09:58:23.232Z,989.99
2018-08-23T09:59:21.814Z,989.95
2018-08-23T10:00:24.741Z,989.89
2018-08-23T10:01:21.234Z,989.92
2018-08-23T10:02:21.433Z,989.98
2018-08-23T10:03:21.667Z,990.01
2018-08-23T10:04:22.536Z,990.04
2018-08-23T10:05:22.169Z,989.85
2018-08-23T10:06:22.261Z,989.98
2018-08-23T10:07:22.747Z,989.97
2018-08-23T10:08:22.671Z,990.01
2018-08-23T10:09:23.031Z,989.91
2018-08-23T10:10:23.001Z,989.81
2018-08-23T10:11:23.279Z,989.90
2018-08-23T10:12:23.391Z,989.95
2018-08-23T10:13:23.578Z,989.99
2018-08-23T10:14:23.772Z,989.98
2018-08-23T10:15:24.183Z,989.94
2018-08-23T10:16:24.222Z,989.99
2018-08-23T10:17:24.293Z,989.94
2018-08-23T10:18:24.489Z,989.93
2018-08-23T10:19:24.680Z,989.89
2018-08-23T10:20:24.938Z,989.88
2018-08-23T10:21:25.001Z,989.89
2018-08-23T10:22:25.191Z,989.88
2018-08-23T10:23:25.379Z,989.90
2018-08-23T10:24:25.580Z,989.85
2018-08-23T10:25:25.772Z,989.85
2018-08-23T10:26:31.533Z,989.84
2018-08-23T10:27:29.506Z,989.80
2018-08-23T10:28:27.606Z,989.76
2018-08-23T10:29:28.422Z,989.76
2018-08-23T10:30:29.503Z,989.74
2018-08-23T10:31:26.761Z,989.76
2018-08-23T10:32:26.914Z,989.74
2018-08-23T10:33:27.098Z,989.74
2018-08-23T10:34:27.295Z,989.77
2018-08-23T10:35:27.480Z,989.75
2018-08-23T10:36:27.669Z,989.69
2018-08-23T10:37:27.859Z,989.65
2018-08-23T10:38:28.049Z,989.71
2018-08-23T10:39:28.236Z,989.73
2018-08-23T10:40:28.445Z,989.72
2018-08-23T10:41:28.646Z,989.72
2018-08-23T10:42:28.861Z,989.64
2018-08-23T10:43:29.070Z,989.57
2018-08-23T10:44:29.294Z,989.62
2018-08-23T10:45:29.452Z,989.65
2018-08-23T10:46:29.645Z,989.62
2018-08-23T10:47:29.846Z,989.59
2018-08-23T10:48:30.031Z,989.62
2018-08-23T10:49:30.228Z,989.60
2018-08-23T10:50:30.461Z,989.60
2018-08-23T10:51:30.629Z,989.57
2018-08-23T10:52:30.827Z,989.53
2018-08-23T10:53:31.018Z,989.54
2018-08-23T10:54:31.888Z,989.54
2018-08-23T10:55:32.914Z,989.50
2018-08-23T10:56:31.588Z,989.48
2018-08-23T10:57:31.771Z,989.48
2018-08-23T10:58:31.972Z,989.08
2018-08-23T10:59:32.165Z,988.99
2018-08-23T11:00:32.348Z,989.12
2018-08-23T11:01:32.582Z,989.40
2018-08-23T11:02:32.752Z,989.48
2018-08-23T11:03:32.954Z,989.22
2018-08-23T11:04:33.148Z,989.44
2018-08-23T11:05:33.345Z,989.40
2018-08-23T11:06:33.602Z,989.35
2018-08-23T11:07:33.663Z,989.35
2018-08-23T11:08:33.857Z,989.29
2018-08-23T11:09:34.065Z,989.37
2018-08-23T11:10:34.294Z,989.31
2018-08-23T11:11:34.386Z,989.26
2018-08-23T11:12:34.619Z,989.20
2018-08-23T11:13:34.809Z,989.20
2018-08-23T11:14:35.004Z,989.24
2018-08-23T11:15:35.200Z,989.27
2018-08-23T11:16:35.480Z,989.24
2018-08-23T11:17:36.253Z,989.23
2018-08-23T11:18:36.349Z,989.27
2018-08-23T11:19:36.601Z,989.31
2018-08-23T11:20:40.827Z,989.27
2018-08-23T11:21:38.394Z,989.25
2018-08-23T11:22:37.349Z,989.19
2018-08-23T11:23:38.098Z,989.19
2018-08-23T11:24:37.108Z,989.21
2018-08-23T11:25:37.424Z,989.22
2018-08-23T11:26:37.063Z,989.17
2018-08-23T11:27:37.267Z,989.25
2018-08-23T11:28:37.666Z,989.23
2018-08-23T11:29:37.667Z,989.16
2018-08-23T11:30:37.790Z,989.17
2018-08-23T11:31:41.453Z,989.23
2018-08-23T11:32:41.750Z,989.19
2018-08-23T11:33:38.351Z,989.25
2018-08-23T11:34:38.534Z,989.16
2018-08-23T11:35:38.716Z,989.15
2018-08-23T11:36:38.905Z,989.13
2018-08-23T11:37:39.104Z,989.06
2018-08-23T11:38:39.374Z,988.93
2018-08-23T11:39:39.437Z,988.95
2018-08-23T11:40:39.661Z,989.03
2018-08-23T11:41:39.845Z,989.04
2018-08-23T11:42:40.124Z,989.07
2018-08-23T11:43:40.366Z,989.03
2018-08-23T11:44:40.448Z,989.02
2018-08-23T11:45:40.530Z,989.04
2018-08-23T11:46:40.735Z,989.06
2018-08-23T11:47:40.938Z,989.05
2018-08-23T11:48:41.371Z,989.01
2018-08-23T11:49:42.564Z,989.00
2018-08-23T11:50:41.789Z,988.96
2018-08-23T11:51:42.424Z,988.91
2018-08-23T11:52:43.318Z,988.89
2018-08-23T11:53:43.995Z,988.89
2018-08-23T11:54:43.605Z,988.87
2018-08-23T11:55:43.612Z,988.84
2018-08-23T11:56:43.493Z,988.85
2018-08-23T11:57:43.874Z,988.81
2018-08-23T11:58:44.067Z,988.85
2018-08-23T11:59:44.268Z,988.94
2018-08-23T12:00:44.432Z,988.99
2018-08-23T12:01:44.501Z,988.87
2018-08-23T12:02:45.536Z,988.85
2018-08-23T12:03:47.016Z,988.84
2018-08-23T12:04:45.001Z,988.76
2018-08-23T12:05:45.137Z,988.73
2018-08-23T12:06:44.867Z,988.62
2018-08-23T12:07:44.839Z,988.63
2018-08-23T12:08:45.021Z,988.74
2018-08-23T12:09:45.244Z,988.63
2018-08-23T12:10:45.421Z,988.55
2018-08-23T12:11:45.609Z,988.56
2018-08-23T12:12:45.797Z,988.52
2018-08-23T12:13:45.988Z,988.39
2018-08-23T12:14:46.171Z,988.43
2018-08-23T12:15:46.369Z,988.38
2018-08-23T12:16:49.272Z,988.35
2018-08-23T12:17:47.194Z,988.29
2018-08-23T12:18:47.840Z,988.31
2018-08-23T12:19:47.238Z,988.37
2018-08-23T12:20:47.633Z,988.33
2018-08-23T12:21:48.488Z,988.31
2018-08-23T12:22:49.777Z,988.27
2018-08-23T12:23:48.236Z,988.06
2018-08-23T12:24:47.978Z,988.11
2018-08-23T12:25:48.613Z,988.23
2018-08-23T12:26:49.542Z,988.23
2018-08-23T12:27:48.925Z,988.24
2018-08-23T12:28:48.987Z,988.20
2018-08-23T12:29:49.283Z,988.28
2018-08-23T12:30:49.377Z,988.30